createdAt,value
2018-01-13T00:00:27.458Z,48.93
2018-01-13T00:02:55.243Z,50.87
2018-01-13T00:05:23.313Z,57.50
2018-01-13T00:07:50.883Z,46.37
2018-01-13T00:10:18.388Z,50.50
2018-01-13T00:12:45.891Z,53.03
2018-01-13T00:15:13.426Z,52.43
2018-01-13T00:17:40.923Z,47.17
2018-01-13T00:20:08.435Z,50.37
2018-01-13T00:22:38.789Z,52.47
2018-01-13T00:25:06.286Z,50.57
2018-01-13T00:27:33.795Z,44.33
2018-01-13T00:30:01.576Z,49.00
2018-01-13T00:32:29.339Z,53.10
2018-01-13T00:34:56.842Z,45.97
2018-01-13T00:37:24.830Z,46.67
2018-01-13T00:39:52.619Z,50.77
2018-01-13T00:42:20.374Z,51.70
2018-01-13T00:44:48.451Z,47.67
2018-01-13T00:47:16.219Z,44.57
2018-01-13T00:49:43.984Z,44.23
2018-01-13T00:52:11.493Z,50.47
2018-01-13T00:54:38.995Z,50.77
2018-01-13T00:57:07.886Z,50.23
2018-01-13T00:59:35.423Z,50.03
2018-01-13T01:02:02.936Z,51.47
2018-01-13T01:04:31.210Z,47.20
2018-01-13T01:06:59.246Z,54.00
2018-01-13T01:09:26.766Z,52.03
2018-01-13T01:11:54.431Z,52.37
2018-01-13T01:14:22.230Z,45.47
2018-01-13T01:16:49.739Z,51.10
2018-01-13T01:19:17.239Z,57.77
2018-01-13T01:21:45.514Z,45.67
2018-01-13T01:24:13.015Z,52.90
2018-01-13T01:26:40.528Z,50.97
2018-01-13T01:29:08.194Z,64.70
2018-01-13T01:31:35.712Z,54.47
2018-01-13T01:34:03.218Z,53.70
2018-01-13T01:36:30.723Z,49.60
2018-01-13T01:38:58.318Z,59.10
2018-01-13T01:41:25.825Z,50.30
2018-01-13T01:43:53.555Z,59.20
2018-01-13T01:46:21.319Z,56.40
2018-01-13T01:48:48.823Z,55.67
2018-01-13T01:51:16.742Z,52.27
2018-01-13T01:53:44.258Z,50.00
2018-01-13T01:56:11.770Z,57.23
2018-01-13T01:58:39.280Z,51.57
2018-01-13T02:01:07.583Z,51.50
2018-01-13T02:03:35.080Z,47.33
2018-01-13T02:06:02.594Z,55.00
2018-01-13T02:08:30.581Z,54.57
2018-01-13T02:10:58.092Z,58.43
2018-01-13T02:13:25.795Z,52.50
2018-01-13T02:15:54.438Z,52.00
2018-01-13T02:18:21.947Z,57.73
2018-01-13T02:20:50.311Z,43.63
2018-01-13T02:23:17.819Z,46.57
2018-01-13T02:25:46.112Z,45.07
2018-01-13T02:28:13.614Z,48.63
2018-01-13T02:30:41.674Z,47.97
2018-01-13T02:33:09.435Z,50.90
2018-01-13T02:35:36.929Z,48.40
2018-01-13T02:38:05.255Z,47.77
2018-01-13T02:40:33.031Z,55.47
2018-01-13T02:43:00.538Z,47.90
2018-01-13T02:45:28.258Z,49.90
2018-01-13T02:47:56.020Z,49.80
2018-01-13T02:50:23.782Z,55.20
2018-01-13T02:52:51.918Z,54.90
2018-01-13T02:55:19.614Z,52.00
2018-01-13T02:57:47.119Z,55.53
2018-01-13T03:00:14.834Z,53.80
2018-01-13T03:02:42.335Z,58.87
2018-01-13T03:05:10.245Z,58.90
2018-01-13T03:07:37.826Z,64.47
2018-01-13T03:10:05.371Z,55.80
2018-01-13T03:12:32.876Z,59.80
2018-01-13T03:15:01.242Z,70.80
2018-01-13T03:17:28.759Z,61.90
2018-01-13T03:19:56.774Z,61.13
2018-01-13T03:22:25.039Z,57.10
2018-01-13T03:24:52.556Z,67.17
2018-01-13T03:27:20.200Z,58.97
2018-01-13T03:29:47.721Z,62.33
2018-01-13T03:32:15.451Z,55.83
2018-01-13T03:34:42.950Z,56.37
2018-01-13T03:37:10.865Z,60.23
2018-01-13T03:39:39.358Z,60.40
2018-01-13T03:42:06.850Z,63.57
2018-01-13T03:44:34.560Z,57.70
2018-01-13T03:47:02.054Z,66.57
2018-01-13T03:49:29.572Z,65.93
2018-01-13T03:51:57.076Z,65.03
2018-01-13T03:54:24.998Z,68.57
2018-01-13T03:56:52.830Z,63.10
2018-01-13T03:59:20.330Z,67.53
2018-01-13T04:01:48.247Z,74.13
2018-01-13T04:04:15.767Z,68.83
2018-01-13T04:06:43.279Z,72.73
2018-01-13T04:09:10.987Z,72.47
2018-01-13T04:11:38.492Z,70.70
2018-01-13T04:14:06.162Z,78.50
2018-01-13T04:16:33.678Z,77.07
2018-01-13T04:19:01.446Z,74.07
2018-01-13T04:21:28.951Z,84.50
2018-01-13T04:23:56.461Z,82.17
2018-01-13T04:26:23.962Z,78.20
2018-01-13T04:28:51.864Z,93.93
2018-01-13T04:31:19.370Z,92.20
2018-01-13T04:33:47.696Z,89.33
2018-01-13T04:36:15.195Z,73.40
2018-01-13T04:38:42.710Z,82.80
2018-01-13T04:41:10.376Z,95.33
2018-01-13T04:43:37.899Z,83.50
2018-01-13T04:46:05.917Z,92.70
2018-01-13T04:48:34.062Z,96.93
2018-01-13T04:51:01.591Z,86.43
2018-01-13T04:53:29.847Z,78.70
2018-01-13T04:55:57.573Z,86.93
2018-01-13T04:58:25.791Z,91.40
2018-01-13T05:00:54.334Z,91.53
2018-01-13T05:03:21.830Z,92.73
2018-01-13T05:05:49.332Z,97.20
2018-01-13T05:08:16.827Z,86.63
2018-01-13T05:10:44.467Z,91.70
2018-01-13T05:13:12.883Z,94.87
2018-01-13T05:15:40.599Z,91.03
2018-01-13T05:18:08.102Z,99.67
2018-01-13T05:20:35.780Z,86.97
2018-01-13T05:23:03.294Z,86.73
2018-01-13T05:25:30.902Z,85.77
2018-01-13T05:27:58.463Z,94.33
2018-01-13T05:30:26.267Z,104.10
2018-01-13T05:32:53.777Z,109.27
2018-01-13T05:35:21.491Z,92.27
2018-01-13T05:37:48.999Z,89.33
2018-01-13T05:40:17.006Z,102.20
2018-01-13T05:42:44.515Z,93.73
2018-01-13T05:45:12.227Z,96.77
2018-01-13T05:47:39.998Z,103.03
2018-01-13T05:50:09.000Z,109.57
2018-01-13T05:52:36.730Z,123.57
2018-01-13T05:55:04.510Z,101.23
2018-01-13T05:57:32.020Z,95.10
2018-01-13T05:59:59.737Z,114.10
2018-01-13T06:02:27.240Z,115.50
2018-01-13T06:04:54.964Z,108.63
2018-01-13T06:07:22.474Z,102.63
2018-01-13T06:09:49.987Z,103.20
2018-01-13T06:12:17.606Z,109.57
2018-01-13T06:14:45.510Z,103.63
2018-01-13T06:17:13.175Z,109.27
2018-01-13T06:19:41.199Z,111.63
2018-01-13T06:22:08.711Z,103.90
2018-01-13T06:24:36.237Z,109.20
2018-01-13T06:27:03.747Z,106.97
2018-01-13T06:29:32.026Z,105.77
2018-01-13T06:32:00.358Z,102.30
2018-01-13T06:34:28.124Z,115.37
2018-01-13T06:36:55.889Z,100.93
2018-01-13T06:39:23.604Z,112.63
2018-01-13T06:41:51.331Z,99.63
2018-01-13T06:44:19.481Z,100.30
2018-01-13T06:46:47.118Z,106.57
2018-01-13T06:49:15.311Z,108.70
2018-01-13T06:51:43.207Z,90.97
2018-01-13T06:54:10.845Z,97.97
2018-01-13T06:56:38.347Z,108.30
2018-01-13T06:59:05.856Z,112.63
2018-01-13T07:01:33.420Z,110.23
2018-01-13T07:04:01.899Z,123.00
2018-01-13T07:06:29.399Z,116.63
2018-01-13T07:08:56.911Z,124.93
2018-01-13T07:11:24.887Z,101.40
2018-01-13T07:13:52.441Z,110.50
2018-01-13T07:16:20.063Z,111.00
2018-01-13T07:18:47.570Z,107.50
2018-01-13T07:21:15.079Z,101.70
2018-01-13T07:23:42.779Z,114.63
2018-01-13T07:26:10.274Z,97.10
2018-01-13T07:28:37.998Z,105.63
2018-01-13T07:31:05.498Z,93.13
2018-01-13T07:33:33.218Z,97.13
2018-01-13T07:36:00.725Z,110.67
2018-01-13T07:38:28.243Z,110.90
2018-01-13T07:40:55.739Z,89.20
2018-01-13T07:43:24.270Z,97.17
2018-01-13T07:45:52.352Z,96.13
2018-01-13T07:48:20.411Z,98.87
2018-01-13T07:50:47.919Z,103.70
2018-01-13T07:53:15.428Z,106.70
2018-01-13T07:55:42.972Z,101.87
2018-01-13T07:58:10.547Z,115.53
2018-01-13T08:00:38.310Z,102.03
2018-01-13T08:03:06.070Z,111.43
2018-01-13T08:05:33.578Z,104.33
2018-01-13T08:08:01.292Z,95.40
2018-01-13T08:10:29.055Z,103.83
2018-01-13T08:12:56.842Z,110.53
2018-01-13T08:15:24.609Z,107.47
2018-01-13T08:17:52.104Z,110.07
2018-01-13T08:20:20.131Z,110.03
2018-01-13T08:22:47.652Z,105.90
2018-01-13T08:25:15.147Z,99.33
2018-01-13T08:27:42.760Z,101.73
2018-01-13T08:30:10.268Z,101.60
2018-01-13T08:32:37.911Z,103.47
2018-01-13T08:35:05.488Z,108.83
2018-01-13T08:37:33.235Z,109.40
2018-01-13T08:40:00.738Z,107.40
2018-01-13T08:42:28.734Z,99.77
2018-01-13T08:44:56.823Z,108.23
2018-01-13T08:47:24.326Z,91.30
2018-01-13T08:49:52.283Z,102.87
2018-01-13T08:52:20.603Z,105.43
2018-01-13T08:54:48.516Z,93.33
2018-01-13T08:57:16.394Z,100.80
2018-01-13T08:59:44.671Z,102.10
2018-01-13T09:02:12.195Z,101.57
2018-01-13T09:04:39.816Z,100.30
2018-01-13T09:07:07.332Z,104.17
2018-01-13T09:09:35.343Z,100.13
2018-01-13T09:12:02.846Z,93.63
2018-01-13T09:14:30.915Z,98.50
2018-01-13T09:16:58.954Z,91.07
2018-01-13T09:19:26.858Z,101.77
2018-01-13T09:21:54.363Z,112.00
2018-01-13T09:24:22.284Z,97.03
2018-01-13T09:26:49.803Z,95.07
2018-01-13T09:29:17.495Z,101.93
2018-01-13T09:31:45.035Z,100.03
2018-01-13T09:34:12.531Z,100.80
2018-01-13T09:36:40.166Z,100.30
2018-01-13T09:39:08.243Z,91.33
2018-01-13T09:41:35.775Z,96.33
2018-01-13T09:44:03.278Z,95.13
2018-01-13T09:46:30.787Z,105.07
2018-01-13T09:48:58.294Z,87.57
2018-01-13T09:51:26.562Z,99.50
2018-01-13T09:53:54.079Z,100.87
2018-01-13T09:56:21.574Z,103.33
2018-01-13T09:58:49.093Z,90.47
2018-01-13T10:01:17.116Z,109.57
2018-01-13T10:03:44.687Z,107.83
2018-01-13T10:06:12.692Z,107.37
2018-01-13T10:08:40.198Z,98.70
2018-01-13T10:11:07.700Z,128.70
2018-01-13T10:13:35.212Z,96.53
2018-01-13T10:16:02.876Z,99.43
2018-01-13T10:18:30.587Z,104.40
2018-01-13T10:20:58.383Z,99.70
2018-01-13T10:23:25.895Z,122.50
2018-01-13T10:25:53.404Z,105.20
2018-01-13T10:28:21.090Z,106.27
2018-01-13T10:30:48.721Z,100.43
2018-01-13T10:33:16.420Z,107.97
2018-01-13T10:35:45.014Z,108.63
2018-01-13T10:38:12.724Z,109.70
2018-01-13T10:40:40.487Z,117.40
2018-01-13T10:43:08.591Z,114.93
2018-01-13T10:45:36.936Z,115.23
2018-01-13T10:48:04.698Z,106.87
2018-01-13T10:50:32.195Z,109.90
2018-01-13T10:52:59.918Z,110.27
2018-01-13T10:55:27.835Z,120.87
2018-01-13T10:57:56.106Z,124.60
2018-01-13T11:00:24.405Z,105.40
2018-01-13T11:02:51.911Z,121.60
2018-01-13T11:05:19.656Z,111.00
2018-01-13T11:07:47.154Z,109.00
2018-01-13T11:10:14.674Z,117.03
2018-01-13T11:12:42.175Z,110.33
2018-01-13T11:15:10.450Z,119.70
2018-01-13T11:17:37.965Z,123.20
2018-01-13T11:20:05.463Z,126.30
2018-01-13T11:22:33.391Z,126.83
2018-01-13T11:25:01.155Z,126.80
2018-01-13T11:27:28.920Z,119.30
2018-01-13T11:29:56.679Z,135.83
2018-01-13T11:32:24.175Z,127.27
2018-01-13T11:34:52.340Z,125.40
2018-01-13T11:37:20.076Z,117.60
2018-01-13T11:39:49.399Z,117.63
2018-01-13T11:42:17.292Z,113.83
2018-01-13T11:44:44.799Z,111.27
2018-01-13T11:47:13.146Z,114.80
2018-01-13T11:49:40.647Z,137.73
2018-01-13T11:52:08.587Z,127.80
2018-01-13T11:54:36.623Z,117.83
2018-01-13T11:57:04.895Z,122.77
2018-01-13T11:59:32.404Z,114.90
2018-01-13T12:02:00.048Z,121.17
2018-01-13T12:04:27.552Z,114.47
2018-01-13T12:06:55.063Z,112.07
2018-01-13T12:09:22.563Z,118.03
2018-01-13T12:11:50.199Z,113.00
2018-01-13T12:14:18.231Z,114.93
2018-01-13T12:16:46.032Z,116.60
2018-01-13T12:19:13.535Z,106.07
2018-01-13T12:21:41.039Z,122.90
2018-01-13T12:24:08.543Z,121.33
2018-01-13T12:26:36.824Z,126.83
2018-01-13T12:29:04.546Z,118.13
2018-01-13T12:31:32.582Z,112.87
2018-01-13T12:34:00.087Z,107.97
2018-01-13T12:36:29.679Z,111.70
2018-01-13T12:38:57.217Z,109.77
2018-01-13T12:41:24.875Z,118.23
2018-01-13T12:43:53.143Z,106.13
2018-01-13T12:46:20.642Z,109.37
2018-01-13T12:48:48.191Z,107.23
2018-01-13T12:51:15.963Z,112.53
2018-01-13T12:53:43.467Z,114.80
2018-01-13T12:56:11.270Z,112.40
2018-01-13T12:58:38.783Z,107.47
2018-01-13T13:01:07.046Z,104.87
2018-01-13T13:03:34.774Z,102.37
2018-01-13T13:06:02.268Z,107.00
2018-01-13T13:08:29.995Z,104.33
2018-01-13T13:10:57.883Z,96.40
2018-01-13T13:13:25.395Z,97.17
2018-01-13T13:15:52.978Z,95.90
2018-01-13T13:18:20.751Z,101.37
2018-01-13T13:20:48.611Z,95.70
2018-01-13T13:23:16.958Z,85.40
2018-01-13T13:25:46.060Z,103.20
2018-01-13T13:28:13.569Z,91.87
2018-01-13T13:30:41.476Z,92.63
2018-01-13T13:33:08.983Z,115.63
2018-01-13T13:35:36.487Z,121.67
2018-01-13T13:38:03.995Z,86.93
2018-01-13T13:40:31.998Z,94.07
2018-01-13T13:42:59.607Z,91.00
2018-01-13T13:45:27.368Z,98.10
2018-01-13T13:47:54.862Z,94.03
2018-01-13T13:50:23.014Z,86.87
2018-01-13T13:52:50.961Z,87.17
2018-01-13T13:55:18.688Z,82.13
2018-01-13T13:57:46.195Z,87.90
2018-01-13T14:00:15.486Z,116.33
2018-01-13T14:02:42.983Z,76.40
2018-01-13T14:05:10.702Z,85.40
2018-01-13T14:07:38.334Z,72.27
2018-01-13T14:10:05.889Z,76.60
2018-01-13T14:12:33.382Z,84.83
2018-01-13T14:15:01.144Z,80.50
2018-01-13T14:17:29.559Z,70.00
2018-01-13T14:19:57.185Z,79.10
2018-01-13T14:22:25.625Z,78.63
2018-01-13T14:24:53.120Z,83.90
2018-01-13T14:27:20.623Z,69.70
2018-01-13T14:29:48.299Z,69.93
2018-01-13T14:32:15.800Z,70.90
2018-01-13T14:34:43.561Z,65.17
2018-01-13T14:37:11.446Z,66.70
2018-01-13T14:39:39.394Z,58.97
2018-01-13T14:42:07.015Z,64.33
2018-01-13T14:44:34.511Z,58.80
2018-01-13T14:47:02.688Z,59.07
2018-01-13T14:49:30.198Z,64.17
2018-01-13T14:51:57.911Z,55.47
2018-01-13T14:54:25.418Z,55.70
2018-01-13T14:56:52.939Z,60.00
2018-01-13T14:59:20.430Z,59.80
2018-01-13T15:01:47.943Z,60.43
2018-01-13T15:04:15.507Z,57.43
2018-01-13T15:06:43.251Z,52.70
2018-01-13T15:09:11.022Z,54.10
2018-01-13T15:11:38.794Z,59.37
2018-01-13T15:14:06.547Z,55.37
2018-01-13T15:16:34.315Z,62.03
2018-01-13T15:19:02.072Z,50.80
2018-01-13T15:21:29.576Z,51.43
2018-01-13T15:23:57.070Z,68.90
2018-01-13T15:26:25.064Z,50.97
2018-01-13T15:28:52.557Z,53.93
2018-01-13T15:31:20.079Z,49.47
2018-01-13T15:33:48.220Z,51.83
2018-01-13T15:36:15.805Z,53.20
2018-01-13T15:38:43.569Z,49.23
2018-01-13T15:41:11.328Z,46.80
2018-01-13T15:43:39.097Z,42.03
2018-01-13T15:46:06.610Z,44.00
2018-01-13T15:48:34.227Z,45.83
2018-01-13T15:51:02.698Z,39.30
2018-01-13T15:53:30.458Z,42.30
2018-01-13T15:55:58.522Z,44.33
2018-01-13T15:58:26.041Z,42.60
2018-01-13T16:00:53.745Z,42.73
2018-01-13T16:03:21.515Z,37.50
2018-01-13T16:05:49.887Z,40.80
2018-01-13T16:08:17.397Z,40.80
2018-01-13T16:10:45.083Z,40.50
2018-01-13T16:13:12.600Z,38.77
2018-01-13T16:15:40.490Z,40.07
2018-01-13T16:18:08.706Z,43.57
2018-01-13T16:20:36.612Z,40.93
2018-01-13T16:23:04.875Z,38.53
2018-01-13T16:25:32.380Z,40.07
2018-01-13T16:27:59.878Z,33.97
2018-01-13T16:30:27.779Z,35.50
2018-01-13T16:32:55.295Z,40.43
2018-01-13T16:35:22.808Z,39.60
2018-01-13T16:37:50.699Z,34.73
2018-01-13T16:40:18.240Z,38.23
2018-01-13T16:42:46.146Z,36.50
2018-01-13T16:45:13.655Z,37.23
2018-01-13T16:47:41.157Z,33.20
2018-01-13T16:50:08.716Z,34.90
2018-01-13T16:52:36.478Z,35.57
2018-01-13T16:55:04.235Z,41.70
2018-01-13T16:57:31.734Z,37.27
2018-01-13T16:59:59.462Z,32.40
2018-01-13T17:02:27.543Z,34.87
2018-01-13T17:04:55.293Z,41.07
2018-01-13T17:07:22.801Z,34.30
2018-01-13T17:09:50.303Z,40.90
2018-01-13T17:12:17.962Z,41.27
2018-01-13T17:14:45.476Z,47.53
2018-01-13T17:17:13.150Z,34.80
2018-01-13T17:19:40.767Z,36.00
2018-01-13T17:22:08.412Z,38.37
2018-01-13T17:24:36.686Z,35.07
2018-01-13T17:27:04.266Z,32.97
2018-01-13T17:29:31.806Z,31.73
2018-01-13T17:31:59.463Z,43.40
2018-01-13T17:34:27.234Z,42.43
2018-01-13T17:36:54.732Z,35.07
2018-01-13T17:39:22.420Z,32.13
2018-01-13T17:41:49.920Z,30.70
2018-01-13T17:44:17.823Z,33.27
2018-01-13T17:46:45.732Z,35.30
2018-01-13T17:49:13.226Z,33.90
2018-01-13T17:51:40.727Z,36.47
2018-01-13T17:54:08.365Z,33.83
2018-01-13T17:56:37.175Z,34.80
2018-01-13T17:59:05.963Z,32.63
2018-01-13T18:01:34.746Z,40.53
2018-01-13T18:04:02.243Z,39.30
2018-01-13T18:06:30.650Z,29.87
2018-01-13T18:08:58.154Z,33.37
2018-01-13T18:11:25.827Z,36.20
2018-01-13T18:13:53.324Z,30.83
2018-01-13T18:16:20.891Z,33.80
2018-01-13T18:18:49.168Z,35.30
2018-01-13T18:21:16.747Z,35.70
2018-01-13T18:23:44.251Z,32.33
2018-01-13T18:26:11.768Z,31.20
2018-01-13T18:28:40.029Z,40.00
2018-01-13T18:31:07.536Z,35.23
2018-01-13T18:33:35.098Z,34.63
2018-01-13T18:36:02.860Z,35.03
2018-01-13T18:38:30.352Z,35.87
2018-01-13T18:40:58.656Z,37.80
2018-01-13T18:43:26.550Z,35.50
2018-01-13T18:45:54.081Z,34.37
2018-01-13T18:48:22.592Z,38.53
2018-01-13T18:50:50.584Z,36.70
2018-01-13T18:53:18.857Z,31.70
2018-01-13T18:55:46.405Z,30.13
2018-01-13T18:58:14.136Z,26.23
2018-01-13T19:00:41.624Z,28.90
2018-01-13T19:03:09.126Z,34.00
2018-01-13T19:05:36.947Z,27.27
2018-01-13T19:08:04.459Z,27.83
2018-01-13T19:10:32.699Z,30.47
2018-01-13T19:13:02.618Z,41.43
2018-01-13T19:15:31.078Z,30.07
2018-01-13T19:17:59.095Z,33.33
2018-01-13T19:20:27.088Z,25.10
2018-01-13T19:22:55.155Z,25.50
2018-01-13T19:25:22.870Z,30.17
2018-01-13T19:27:50.368Z,29.33
2018-01-13T19:30:17.948Z,29.10
2018-01-13T19:32:45.640Z,31.50
2018-01-13T19:35:13.127Z,35.23
2018-01-13T19:37:41.163Z,30.27
2018-01-13T19:40:09.040Z,32.67
2018-01-13T19:42:36.557Z,28.50
2018-01-13T19:45:04.158Z,34.80
2018-01-13T19:47:31.658Z,30.57
2018-01-13T19:49:59.554Z,32.00
2018-01-13T19:52:27.055Z,28.07
2018-01-13T19:54:55.599Z,27.47
2018-01-13T19:57:23.107Z,28.07
2018-01-13T19:59:50.610Z,34.37
2018-01-13T20:02:18.262Z,32.70
2018-01-13T20:04:45.767Z,31.47
2018-01-13T20:07:13.790Z,30.67
2018-01-13T20:09:41.304Z,28.33
2018-01-13T20:12:08.792Z,34.30
2018-01-13T20:14:37.452Z,26.87
2018-01-13T20:17:05.186Z,29.70
2018-01-13T20:19:33.083Z,31.10
2018-01-13T20:22:01.065Z,30.13
2018-01-13T20:24:29.723Z,31.87
2018-01-13T20:26:57.226Z,28.60
2018-01-13T20:29:25.135Z,29.37
2018-01-13T20:31:53.039Z,29.17
2018-01-13T20:34:20.698Z,25.47
2018-01-13T20:36:48.798Z,26.50
2018-01-13T20:39:17.146Z,25.90
2018-01-13T20:41:45.043Z,28.43
2018-01-13T20:44:12.712Z,28.47
2018-01-13T20:46:40.614Z,32.30
2018-01-13T20:49:08.887Z,25.60
2018-01-13T20:51:36.927Z,27.60
2018-01-13T20:54:04.427Z,27.40
2018-01-13T20:56:32.107Z,29.03
2018-01-13T20:58:59.625Z,22.50
2018-01-13T21:01:27.970Z,21.50
2018-01-13T21:03:55.487Z,24.70
2018-01-13T21:06:23.161Z,23.30
2018-01-13T21:08:50.971Z,25.00
2018-01-13T21:11:20.003Z,26.23
2018-01-13T21:13:48.268Z,20.40
2018-01-13T21:16:16.327Z,25.00
2018-01-13T21:18:43.822Z,21.63
2018-01-13T21:21:12.226Z,21.70
2018-01-13T21:23:39.943Z,17.87
2018-01-13T21:26:07.668Z,18.60
2018-01-13T21:28:35.179Z,21.23
2018-01-13T21:31:03.280Z,21.50
2018-01-13T21:33:30.779Z,23.13
2018-01-13T21:35:58.522Z,19.50
2018-01-13T21:38:27.562Z,18.10
2018-01-13T21:40:55.072Z,19.00
2018-01-13T21:43:22.715Z,18.00
2018-01-13T21:45:50.491Z,18.57
2018-01-13T21:48:18.026Z,17.33
2018-01-13T21:50:45.679Z,21.83
2018-01-13T21:53:13.567Z,17.30
2018-01-13T21:55:41.223Z,18.50
2018-01-13T21:58:08.718Z,19.33
2018-01-13T22:00:36.222Z,18.23
2018-01-13T22:03:03.899Z,20.03
2018-01-13T22:05:31.987Z,21.43
2018-01-13T22:07:59.483Z,18.83
2018-01-13T22:10:27.378Z,24.67
2018-01-13T22:12:55.535Z,17.90
2018-01-13T22:15:23.335Z,20.50
2018-01-13T22:17:50.839Z,17.33
2018-01-13T22:20:18.334Z,20.90
2018-01-13T22:22:46.024Z,19.67
2018-01-13T22:25:13.916Z,19.10
2018-01-13T22:27:42.470Z,19.27
2018-01-13T22:30:10.439Z,14.60
2018-01-13T22:32:39.448Z,16.13
2018-01-13T22:35:07.069Z,17.23
2018-01-13T22:37:35.289Z,25.33
2018-01-13T22:40:04.276Z,20.03
2018-01-13T22:42:32.291Z,19.23
2018-01-13T22:45:00.411Z,20.73
2018-01-13T22:47:29.091Z,19.40
2018-01-13T22:49:57.053Z,20.60
2018-01-13T22:52:24.837Z,14.90
2018-01-13T22:54:53.515Z,18.83
2018-01-13T22:57:21.986Z,20.27
2018-01-13T22:59:49.962Z,19.27
2018-01-13T23:02:17.831Z,19.00
2018-01-13T23:04:46.463Z,16.17
2018-01-13T23:07:15.221Z,20.93
2018-01-13T23:09:43.438Z,17.63
2018-01-13T23:12:12.166Z,17.23
2018-01-13T23:14:39.902Z,19.20
2018-01-13T23:17:07.785Z,16.30
2018-01-13T23:19:35.566Z,20.00
2018-01-13T23:22:03.959Z,22.20
2018-01-13T23:24:32.485Z,20.97
2018-01-13T23:27:00.539Z,15.57
2018-01-13T23:29:28.539Z,24.40
2018-01-13T23:31:56.076Z,14.10
2018-01-13T23:34:24.888Z,15.77
2018-01-13T23:36:53.260Z,17.57
2018-01-13T23:39:21.296Z,15.87
2018-01-13T23:41:49.599Z,14.63
2018-01-13T23:44:18.944Z,24.50
2018-01-13T23:46:46.554Z,23.53
2018-01-13T23:49:14.099Z,15.73
2018-01-13T23:51:42.006Z,15.57
2018-01-13T23:54:09.491Z,14.10
2018-01-13T23:56:37.705Z,24.10
2018-01-13T23:59:05.351Z,16.60
